Time;durP1;ratioP1;P1;durP2;ratioP2;P2;SDS_P1;SDS_P2;PMS_P1;PMS_P2;Temp;Humidity;BMP_temperature;BMP_pressure;BME280_temperature;BME280_humidity;BME280_pressure;Samples;Min_cycle;Max_cycle;Signal;HPM_P1;HPM_P2
2023/05/01 00:02:22;;;;;;;12.23;6.47;;;8.40;99.90;;;;;;4964253;28;20054;-57
2023/05/01 00:04:48;;;;;;;9.05;6.18;;;8.60;99.90;;;;;;4965086;28;20517;-57
2023/05/01 00:07:14;;;;;;;9.90;6.10;;;8.40;99.90;;;;;;4965627;28;20134;-55
2023/05/01 00:09:39;;;;;;;10.88;6.50;;;8.40;99.90;;;;;;4964771;28;20058;-55
2023/05/01 00:12:05;;;;;;;9.27;6.55;;;8.40;99.90;;;;;;4964803;28;20161;-55
2023/05/01 00:14:31;;;;;;;9.73;6.22;;;8.50;99.90;;;;;;4965139;28;20055;-55
2023/05/01 00:16:57;;;;;;;9.52;5.90;;;8.40;99.90;;;;;;4965206;28;20421;-58
2023/05/01 00:19:22;;;;;;;13.25;6.45;;;8.30;99.90;;;;;;4965075;28;20118;-54
2023/05/01 00:21:51;;;;;;;10.23;6.57;;;8.30;99.90;;;;;;4965046;28;20078;-56
2023/05/01 00:24:16;;;;;;;11.77;6.25;;;8.30;99.90;;;;;;4965405;28;20047;-57
2023/05/01 00:26:43;;;;;;;9.95;6.38;;;8.30;99.90;;;;;;4964754;28;20035;-52
2023/05/01 00:29:08;;;;;;;10.05;6.00;;;8.30;99.90;;;;;;4964655;28;20081;-56
2023/05/01 00:31:35;;;;;;;9.25;6.22;;;8.40;99.90;;;;;;4965124;28;20081;-54
2023/05/01 00:34:00;;;;;;;11.02;6.13;;;8.20;99.90;;;;;;4965193;28;20043;-57
2023/05/01 00:36:26;;;;;;;12.13;5.95;;;8.20;99.90;;;;;;4963569;28;20050;-49
2023/05/01 00:38:52;;;;;;;9.23;6.55;;;8.20;99.90;;;;;;4964111;28;20047;-57
2023/05/01 00:41:18;;;;;;;8.63;6.07;;;8.20;99.90;;;;;;4964639;28;20043;-57
2023/05/01 00:43:43;;;;;;;8.10;6.38;;;8.10;99.90;;;;;;4964678;28;20094;-55
2023/05/01 00:46:10;;;;;;;10.18;6.07;;;8.10;99.90;;;;;;4963915;28;20095;-56
2023/05/01 00:48:36;;;;;;;12.98;6.30;;;8.10;99.90;;;;;;4964889;28;20391;-53
2023/05/01 00:51:06;;;;;;;10.50;6.25;;;8.10;99.90;;;;;;4964712;28;20042;-56
2023/05/01 00:53:35;;;;;;;10.40;6.75;;;8.00;99.90;;;;;;4964286;28;20034;-54
2023/05/01 00:56:01;;;;;;;11.60;6.20;;;8.00;99.90;;;;;;4963983;28;20055;-54
2023/05/01 00:58:28;;;;;;;10.88;6.55;;;8.00;99.90;;;;;;4964408;28;20401;-54
2023/05/01 01:00:54;;;;;;;10.55;6.50;;;8.00;99.90;;;;;;4964387;28;20202;-52
2023/05/01 01:03:20;;;;;;;14.15;6.80;;;8.00;99.90;;;;;;4964678;28;20502;-56
2023/05/01 01:05:52;;;;;;;9.15;6.35;;;7.90;99.90;;;;;;4964713;28;20086;-55
2023/05/01 01:08:25;;;;;;;10.73;6.38;;;7.90;99.90;;;;;;5050671;23;20053;-57
2023/05/01 01:11:09;;;;;;;10.05;6.30;;;7.90;99.90;;;;;;4985960;28;20054;-56
2023/05/01 01:14:07;;;;;;;10.43;6.63;;;7.90;99.90;;;;;;4985467;28;20039;-57
2023/05/01 01:16:45;;;;;;;12.05;6.45;;;7.90;99.90;;;;;;4979259;28;20046;-56
2023/05/01 01:19:33;;;;;;;14.65;6.93;;;7.90;99.90;;;;;;4983141;28;20101;-57
2023/05/01 01:22:12;;;;;;;11.30;7.18;;;7.90;99.90;;;;;;4983849;28;20042;-49
2023/05/01 01:25:15;;;;;;;11.20;6.72;;;7.80;99.90;;;;;;4982166;28;20042;-53
2023/05/01 01:28:15;;;;;;;12.15;7.20;;;7.70;99.90;;;;;;4982611;28;20077;-57
2023/05/01 01:31:03;;;;;;;10.30;6.95;;;7.70;99.90;;;;;;4981692;28;20516;-54
2023/05/01 01:33:47;;;;;;;10.98;6.80;;;7.70;99.90;;;;;;4983717;28;20385;-56
2023/05/01 01:36:27;;;;;;;10.15;6.07;;;7.70;99.90;;;;;;4983020;28;20043;-56
2023/05/01 01:39:24;;;;;;;11.02;6.55;;;7.70;99.90;;;;;;4983535;28;20042;-55
2023/05/01 01:41:52;;;;;;;8.73;6.20;;;7.60;99.90;;;;;;4983628;28;20061;-55
2023/05/01 01:44:36;;;;;;;10.50;6.78;;;7.70;99.90;;;;;;4983026;28;20121;-51
2023/05/01 01:47:06;;;;;;;10.63;6.88;;;7.60;99.90;;;;;;4983327;28;20050;-50
2023/05/01 01:49:33;;;;;;;10.32;6.40;;;7.60;99.90;;;;;;4983194;28;20046;-57
2023/05/01 01:52:02;;;;;;;9.68;7.03;;;7.50;99.90;;;;;;4982458;28;20046;-55
2023/05/01 01:54:35;;;;;;;13.88;6.93;;;7.50;99.90;;;;;;4982329;28;20050;-51
2023/05/01 01:57:03;;;;;;;12.02;6.85;;;7.50;99.90;;;;;;4983066;28;20397;-57
2023/05/01 01:59:32;;;;;;;10.75;7.20;;;7.50;99.90;;;;;;4981168;28;20421;-50
2023/05/01 02:02:00;;;;;;;12.20;6.93;;;7.40;99.90;;;;;;4982974;28;20133;-57
2023/05/01 02:04:27;;;;;;;12.48;7.80;;;7.50;99.90;;;;;;4983269;28;20046;-56
2023/05/01 02:06:57;;;;;;;12.25;7.22;;;7.50;99.90;;;;;;4982810;28;20374;-53
2023/05/01 02:09:25;;;;;;;12.30;7.13;;;7.40;99.90;;;;;;4982481;28;20058;-53
2023/05/01 02:11:54;;;;;;;10.13;7.25;;;7.70;99.90;;;;;;4982823;28;20050;-56
2023/05/01 02:14:21;;;;;;;9.90;6.97;;;7.40;99.90;;;;;;4982368;28;20046;-56
2023/05/01 02:16:49;;;;;;;11.63;6.97;;;7.30;99.90;;;;;;4982758;28;20057;-56
2023/05/01 02:19:16;;;;;;;10.65;7.40;;;7.40;99.90;;;;;;4981617;28;20050;-55
2023/05/01 02:21:44;;;;;;;9.18;6.78;;;7.30;99.90;;;;;;4982068;28;20058;-52
2023/05/01 02:24:11;;;;;;;11.57;7.03;;;7.30;99.90;;;;;;4981897;28;20042;-54
2023/05/01 02:26:43;;;;;;;12.35;7.05;;;7.20;99.90;;;;;;4982726;28;20046;-54
2023/05/01 02:29:09;;;;;;;11.43;6.78;;;7.10;99.90;;;;;;4982056;28;20088;-57
2023/05/01 02:31:35;;;;;;;13.45;7.43;;;7.10;99.90;;;;;;4982499;28;20093;-56
2023/05/01 02:34:00;;;;;;;13.73;7.45;;;7.00;99.90;;;;;;4982303;28;20042;-57
2023/05/01 02:36:26;;;;;;;12.85;7.55;;;7.10;99.90;;;;;;4982068;28;20121;-49
2023/05/01 02:38:53;;;;;;;10.82;7.22;;;6.90;99.90;;;;;;4982348;28;20042;-55
2023/05/01 02:41:21;;;;;;;12.77;7.72;;;6.90;99.90;;;;;;4981808;28;20054;-53
2023/05/01 02:43:54;;;;;;;11.45;7.65;;;6.90;99.90;;;;;;4982358;28;20493;-55
2023/05/01 02:46:22;;;;;;;13.10;7.60;;;6.80;99.90;;;;;;4981021;28;20061;-55
2023/05/01 02:48:49;;;;;;;10.05;7.15;;;6.80;99.90;;;;;;4982055;28;20046;-55
2023/05/01 02:51:17;;;;;;;13.38;7.70;;;6.80;99.90;;;;;;4980580;28;20140;-50
2023/05/01 02:53:43;;;;;;;12.35;7.43;;;7.00;99.90;;;;;;4982388;28;20043;-49
2023/05/01 02:56:08;;;;;;;10.68;7.03;;;6.80;99.90;;;;;;4981594;28;20489;-57
2023/05/01 02:58:35;;;;;;;10.80;7.60;;;6.80;99.90;;;;;;4982425;28;20125;-57
2023/05/01 03:01:01;;;;;;;14.18;7.93;;;6.90;99.90;;;;;;4981572;28;20050;-57
2023/05/01 03:03:26;;;;;;;11.90;7.25;;;6.80;99.90;;;;;;4982468;28;20034;-55
2023/05/01 03:05:52;;;;;;;11.10;7.60;;;6.80;99.90;;;;;;4982530;28;20046;-49
2023/05/01 03:08:18;;;;;;;13.27;8.65;;;6.80;99.90;;;;;;4981506;28;20145;-56
2023/05/01 03:10:44;;;;;;;12.23;7.93;;;6.80;99.90;;;;;;4981539;28;20054;-56
2023/05/01 03:13:10;;;;;;;11.13;7.85;;;6.80;99.90;;;;;;4982134;28;20117;-53
2023/05/01 03:15:36;;;;;;;11.15;7.65;;;6.70;99.90;;;;;;4982062;28;20116;-55
2023/05/01 03:18:02;;;;;;;12.25;8.00;;;6.70;99.90;;;;;;4981722;28;20045;-53
2023/05/01 03:20:28;;;;;;;12.75;7.30;;;6.80;99.90;;;;;;4982322;28;20168;-55
2023/05/01 03:22:54;;;;;;;14.60;7.45;;;6.80;99.90;;;;;;4982424;28;20077;-53
2023/05/01 03:25:20;;;;;;;10.70;7.70;;;6.80;99.90;;;;;;4980777;28;20400;-54
2023/05/01 03:27:45;;;;;;;14.65;8.65;;;6.80;99.90;;;;;;4981958;28;20248;-55
2023/05/01 03:30:11;;;;;;;11.65;7.82;;;6.80;99.90;;;;;;4981998;28;20130;-55
2023/05/01 03:32:37;;;;;;;13.02;8.30;;;6.80;99.90;;;;;;4981690;28;20257;-53
2023/05/01 03:35:03;;;;;;;11.88;7.72;;;6.80;99.90;;;;;;4981953;28;20070;-53
2023/05/01 03:37:29;;;;;;;12.18;8.00;;;6.80;99.90;;;;;;4980612;28;20042;-52
2023/05/01 03:39:55;;;;;;;13.45;8.60;;;6.90;99.90;;;;;;4981622;28;20038;-54
2023/05/01 03:42:20;;;;;;;13.73;8.30;;;6.70;99.90;;;;;;4981426;28;20030;-56
2023/05/01 03:44:46;;;;;;;14.40;8.68;;;6.70;99.90;;;;;;4981721;28;20046;-54
2023/05/01 03:47:12;;;;;;;13.48;8.40;;;6.60;99.90;;;;;;4983285;28;20125;-53
2023/05/01 03:49:38;;;;;;;12.63;8.13;;;6.60;99.90;;;;;;4985028;28;20076;-51
2023/05/01 03:52:03;;;;;;;13.02;8.43;;;6.40;99.90;;;;;;4985691;28;21013;-55
2023/05/01 03:54:29;;;;;;;11.88;8.02;;;6.40;99.90;;;;;;4985072;28;20081;-56
2023/05/01 03:56:55;;;;;;;12.05;8.27;;;6.30;99.90;;;;;;4985104;28;20569;-53
2023/05/01 03:59:20;;;;;;;13.23;8.57;;;6.30;99.90;;;;;;4984471;28;20054;-53
2023/05/01 04:01:46;;;;;;;15.20;8.68;;;6.30;99.90;;;;;;4985150;28;20161;-49
2023/05/01 04:04:12;;;;;;;15.23;8.30;;;6.40;99.90;;;;;;4985301;28;20057;-55
2023/05/01 04:06:38;;;;;;;16.27;8.48;;;6.30;99.90;;;;;;4982701;28;20054;-54
2023/05/01 04:09:04;;;;;;;13.32;8.13;;;6.20;99.90;;;;;;4983881;28;20065;-53
2023/05/01 04:11:30;;;;;;;12.15;8.23;;;6.20;99.90;;;;;;4983907;28;20058;-55
2023/05/01 04:13:55;;;;;;;11.45;8.00;;;6.20;99.90;;;;;;4985008;28;20046;-52
2023/05/01 04:16:21;;;;;;;13.27;8.07;;;6.20;99.90;;;;;;4984516;28;20078;-53
2023/05/01 04:18:47;;;;;;;15.55;8.73;;;6.20;99.90;;;;;;4985018;28;20713;-56
2023/05/01 04:21:14;;;;;;;15.60;8.77;;;6.30;99.90;;;;;;4984764;28;20081;-52
2023/05/01 04:23:39;;;;;;;12.75;8.07;;;6.40;99.90;;;;;;4983719;28;20046;-54
2023/05/01 04:26:05;;;;;;;14.52;7.72;;;6.30;99.90;;;;;;4983293;28;20057;-52
2023/05/01 04:28:30;;;;;;;12.43;8.25;;;6.30;99.90;;;;;;4985030;28;20034;-54
2023/05/01 04:30:57;;;;;;;16.50;9.02;;;6.30;99.90;;;;;;4984872;28;20050;-52
2023/05/01 04:33:22;;;;;;;14.10;8.50;;;6.40;99.90;;;;;;4982756;28;20039;-52
2023/05/01 04:35:48;;;;;;;14.15;8.65;;;6.50;99.90;;;;;;4983580;28;20164;-53
2023/05/01 04:38:13;;;;;;;10.70;8.40;;;6.50;99.90;;;;;;4984315;28;20034;-51
2023/05/01 04:40:39;;;;;;;13.88;8.32;;;6.60;99.90;;;;;;4983142;28;20086;-54
2023/05/01 04:43:05;;;;;;;14.55;8.57;;;6.60;99.90;;;;;;4984880;28;20053;-51
2023/05/01 04:45:31;;;;;;;15.52;8.60;;;6.60;99.90;;;;;;4984512;28;20050;-54
2023/05/01 04:47:56;;;;;;;13.38;9.13;;;6.70;99.90;;;;;;4983932;28;20046;-54
2023/05/01 04:50:22;;;;;;;13.75;8.93;;;6.70;99.90;;;;;;4983981;28;20050;-54
2023/05/01 04:52:48;;;;;;;12.85;8.75;;;6.80;99.90;;;;;;4984188;28;20535;-52
2023/05/01 04:55:14;;;;;;;13.00;8.77;;;6.80;99.90;;;;;;4982306;28;20062;-49
2023/05/01 04:57:40;;;;;;;12.25;9.38;;;7.00;99.90;;;;;;4982105;28;20097;-54
2023/05/01 05:00:06;;;;;;;12.02;8.05;;;7.30;99.90;;;;;;4983676;28;20129;-52
2023/05/01 05:02:32;;;;;;;12.63;9.27;;;7.60;99.90;;;;;;4983308;28;20357;-52
2023/05/01 05:04:58;;;;;;;12.30;8.95;;;7.60;99.90;;;;;;4982398;28;20140;-51
2023/05/01 05:07:23;;;;;;;18.60;9.90;;;7.60;99.90;;;;;;4982769;28;20505;-53
2023/05/01 05:09:49;;;;;;;19.13;10.15;;;7.60;99.90;;;;;;4983376;28;20177;-54
2023/05/01 05:12:15;;;;;;;14.50;10.35;;;7.70;99.90;;;;;;4982589;28;20084;-54
2023/05/01 05:14:41;;;;;;;17.50;10.82;;;7.80;99.90;;;;;;4982982;28;20045;-52
2023/05/01 05:17:07;;;;;;;17.75;12.30;;;8.00;99.90;;;;;;4984082;28;20448;-52
2023/05/01 05:19:33;;;;;;;17.63;12.10;;;8.40;99.90;;;;;;4984233;28;20089;-51
2023/05/01 05:22:02;;;;;;;17.17;11.15;;;8.70;99.90;;;;;;4983450;28;20053;-52
2023/05/01 05:24:27;;;;;;;16.77;11.38;;;9.00;99.90;;;;;;4982693;28;20341;-49
2023/05/01 05:26:53;;;;;;;15.00;10.57;;;9.50;99.90;;;;;;4983293;28;20100;-57
2023/05/01 05:29:19;;;;;;;14.50;9.43;;;9.40;99.90;;;;;;4983457;28;20137;-57
2023/05/01 05:31:46;;;;;;;14.25;9.95;;;9.60;99.90;;;;;;4981511;28;20126;-55
2023/05/01 05:34:12;;;;;;;13.45;10.05;;;9.60;99.90;;;;;;4983548;28;20464;-57
2023/05/01 05:36:37;;;;;;;16.45;9.60;;;9.70;99.90;;;;;;4983602;28;20057;-57
2023/05/01 05:39:03;;;;;;;17.40;9.80;;;9.60;99.90;;;;;;4981890;28;20532;-54
2023/05/01 05:41:28;;;;;;;14.85;9.30;;;9.50;99.90;;;;;;4983191;28;20567;-57
2023/05/01 05:43:54;;;;;;;15.15;8.93;;;9.40;99.90;;;;;;4983033;28;20512;-56
2023/05/01 05:46:20;;;;;;;15.65;9.02;;;9.50;99.90;;;;;;4982611;28;20046;-52
2023/05/01 05:48:46;;;;;;;13.38;9.15;;;9.60;99.90;;;;;;4983002;28;20042;-51
2023/05/01 05:51:11;;;;;;;13.20;8.90;;;9.80;99.90;;;;;;4983251;28;20129;-57
2023/05/01 05:53:37;;;;;;;14.38;8.82;;;10.10;99.90;;;;;;4982718;28;20072;-55
2023/05/01 05:56:03;;;;;;;14.68;9.15;;;10.30;99.90;;;;;;4982489;28;20516;-54
2023/05/01 05:58:29;;;;;;;17.02;9.25;;;10.40;99.90;;;;;;4982893;28;20133;-54
2023/05/01 06:00:55;;;;;;;13.02;8.40;;;10.50;99.90;;;;;;4982955;28;20687;-53
2023/05/01 06:03:21;;;;;;;14.30;8.80;;;10.60;99.90;;;;;;4982306;28;20338;-56
2023/05/01 06:05:47;;;;;;;16.23;8.70;;;10.70;99.90;;;;;;4982544;28;20050;-47
2023/05/01 06:08:14;;;;;;;13.98;9.27;;;10.80;99.90;;;;;;4982571;28;20054;-57
2023/05/01 06:10:42;;;;;;;13.68;8.60;;;10.80;99.90;;;;;;4982383;28;20292;-49
2023/05/01 06:13:08;;;;;;;12.70;8.55;;;11.00;99.90;;;;;;4982142;28;20455;-56
2023/05/01 06:15:38;;;;;;;16.70;8.95;;;11.00;99.90;;;;;;4983123;28;20387;-58
2023/05/01 06:18:04;;;;;;;15.13;8.55;;;11.00;99.90;;;;;;4981548;28;20101;-56
2023/05/01 06:20:30;;;;;;;13.18;8.88;;;10.90;99.90;;;;;;4982210;28;20050;-51
2023/05/01 06:22:56;;;;;;;13.27;9.05;;;11.00;99.90;;;;;;4982759;28;20046;-53
2023/05/01 06:25:25;;;;;;;11.95;8.10;;;11.30;99.90;;;;;;4981730;28;20034;-52
2023/05/01 06:27:51;;;;;;;12.40;8.52;;;11.70;99.90;;;;;;4981806;28;20050;-55
2023/05/01 06:30:18;;;;;;;13.23;8.23;;;12.20;99.90;;;;;;4980808;28;20049;-54
2023/05/01 06:32:45;;;;;;;13.23;7.97;;;12.60;99.90;;;;;;4982475;28;20046;-57
2023/05/01 06:35:11;;;;;;;15.15;7.75;;;13.00;99.90;;;;;;4982045;28;20049;-57
2023/05/01 06:37:37;;;;;;;11.05;8.57;;;13.30;99.90;;;;;;4982126;28;20039;-57
2023/05/01 06:40:05;;;;;;;12.00;7.28;;;13.60;99.90;;;;;;4981896;28;20046;-56
2023/05/01 06:42:30;;;;;;;12.10;8.32;;;13.90;99.90;;;;;;4982240;28;20455;-57
2023/05/01 06:44:56;;;;;;;14.38;8.55;;;13.80;99.90;;;;;;4982046;28;20117;-57
2023/05/01 06:47:21;;;;;;;11.55;8.18;;;13.60;99.90;;;;;;4982544;28;20238;-57
2023/05/01 06:49:47;;;;;;;10.93;8.30;;;13.30;99.90;;;;;;4982256;28;20042;-50
2023/05/01 06:52:13;;;;;;;12.45;8.05;;;13.10;99.90;;;;;;4982293;28;20074;-51
2023/05/01 06:54:38;;;;;;;13.57;8.27;;;13.10;99.90;;;;;;4982028;28;20061;-58
2023/05/01 06:57:04;;;;;;;12.70;8.68;;;13.10;99.90;;;;;;4982086;28;20505;-57
2023/05/01 06:59:30;;;;;;;13.45;8.35;;;13.00;99.90;;;;;;4982258;28;20046;-57
2023/05/01 07:01:55;;;;;;;14.30;8.85;;;13.00;99.90;;;;;;4981728;28;20517;-59
2023/05/01 07:04:22;;;;;;;14.13;8.65;;;13.00;99.90;;;;;;4982441;28;20595;-57
2023/05/01 07:06:48;;;;;;;16.30;8.48;;;13.20;99.90;;;;;;4981997;28;20085;-57
2023/05/01 07:09:14;;;;;;;13.48;8.60;;;13.60;99.90;;;;;;4981325;28;20074;-50
2023/05/01 07:11:41;;;;;;;10.93;7.60;;;13.90;99.90;;;;;;4982685;28;20117;-57
2023/05/01 07:14:07;;;;;;;16.23;8.30;;;14.30;99.90;;;;;;4980978;28;20069;-59
2023/05/01 07:16:33;;;;;;;13.20;8.13;;;14.70;99.90;;;;;;4981665;28;20042;-56
2023/05/01 07:18:58;;;;;;;17.30;7.95;;;15.00;99.90;;;;;;4982028;28;20038;-58
2023/05/01 07:21:24;;;;;;;13.02;7.85;;;15.20;99.90;;;;;;4982340;28;20105;-55
2023/05/01 07:23:50;;;;;;;13.60;8.45;;;15.20;99.90;;;;;;4985032;28;20042;-58
2023/05/01 07:26:16;;;;;;;11.35;7.65;;;15.40;99.90;;;;;;4985072;28;20043;-52
2023/05/01 07:28:42;;;;;;;10.30;8.15;;;15.70;99.90;;;;;;4986163;28;20039;-57
2023/05/01 07:31:11;;;;;;;12.95;8.10;;;15.90;99.40;;;;;;4985812;28;20080;-57
2023/05/01 07:33:36;;;;;;;12.10;7.22;;;15.70;99.20;;;;;;4985075;28;20061;-57
2023/05/01 07:36:03;;;;;;;12.63;7.28;;;15.40;99.50;;;;;;4985682;28;20493;-56
2023/05/01 07:38:29;;;;;;;11.65;7.53;;;15.40;99.60;;;;;;4984647;28;20409;-55
2023/05/01 07:40:55;;;;;;;12.40;7.00;;;15.50;99.50;;;;;;4985521;28;20070;-53
2023/05/01 07:43:22;;;;;;;12.77;8.05;;;16.00;99.10;;;;;;4985343;28;20204;-52
2023/05/01 07:45:59;;;;;;;13.20;8.68;;;16.20;98.10;;;;;;4985478;28;20046;-55
2023/05/01 07:48:26;;;;;;;15.48;8.00;;;16.30;97.20;;;;;;4984871;28;20045;-58
2023/05/01 07:50:52;;;;;;;12.38;8.10;;;16.50;97.00;;;;;;4985369;28;20425;-55
2023/05/01 07:53:19;;;;;;;13.55;7.80;;;16.60;97.10;;;;;;4984908;28;20038;-55
2023/05/01 07:55:44;;;;;;;11.05;6.55;;;16.70;96.70;;;;;;4985940;28;20452;-55
2023/05/01 07:58:10;;;;;;;11.77;6.45;;;16.60;95.90;;;;;;4984934;28;20129;-53
2023/05/01 08:00:36;;;;;;;12.43;7.47;;;16.30;96.20;;;;;;4985128;28;20038;-57
2023/05/01 08:03:02;;;;;;;11.20;7.18;;;16.10;96.70;;;;;;4985041;28;20043;-55
2023/05/01 08:05:28;;;;;;;10.82;7.30;;;15.90;97.30;;;;;;4984505;28;20104;-53
2023/05/01 08:07:53;;;;;;;11.32;7.60;;;15.70;97.70;;;;;;4984839;28;20050;-52
2023/05/01 08:10:19;;;;;;;16.83;7.63;;;15.60;98.00;;;;;;4984027;28;20061;-54
2023/05/01 08:12:45;;;;;;;12.57;7.38;;;15.60;98.50;;;;;;4983239;28;20053;-53
2023/05/01 08:15:10;;;;;;;10.68;7.30;;;15.60;98.40;;;;;;4982830;28;20069;-54
2023/05/01 08:17:36;;;;;;;12.82;7.05;;;15.60;98.40;;;;;;4983999;28;20046;-56
2023/05/01 08:20:02;;;;;;;13.77;7.28;;;15.70;98.50;;;;;;4983601;28;20088;-54
2023/05/01 08:22:28;;;;;;;10.75;7.38;;;15.80;98.70;;;;;;4983434;28;20117;-54
2023/05/01 08:24:54;;;;;;;13.80;7.32;;;15.70;98.90;;;;;;4983054;28;20462;-55
2023/05/01 08:27:20;;;;;;;11.27;7.05;;;15.60;99.10;;;;;;4965822;28;20038;-53
2023/05/01 08:29:46;;;;;;;11.63;6.88;;;15.60;99.40;;;;;;4982086;28;20449;-53
2023/05/01 08:32:13;;;;;;;12.32;7.82;;;15.60;99.40;;;;;;4982901;28;20042;-50
2023/05/01 08:34:39;;;;;;;12.85;7.05;;;15.70;99.40;;;;;;4983092;28;20093;-54
2023/05/01 08:37:05;;;;;;;10.57;6.95;;;15.60;99.60;;;;;;4983074;28;20451;-52
2023/05/01 08:39:30;;;;;;;12.68;6.72;;;15.70;99.70;;;;;;4980449;28;20436;-53
2023/05/01 08:41:57;;;;;;;9.98;6.60;;;15.80;99.70;;;;;;4983175;28;20559;-52
2023/05/01 08:44:26;;;;;;;11.43;7.13;;;16.00;99.70;;;;;;4983231;28;20433;-55
2023/05/01 08:47:04;;;;;;;8.90;6.95;;;16.30;99.00;;;;;;4982168;28;20038;-54
2023/05/01 08:49:32;;;;;;;13.10;7.13;;;16.50;98.50;;;;;;4981472;28;20042;-55
2023/05/01 08:52:01;;;;;;;13.20;7.05;;;16.80;98.00;;;;;;4982946;28;20046;-58
2023/05/01 08:54:30;;;;;;;12.90;7.18;;;16.90;97.50;;;;;;4981894;28;20196;-53
2023/05/01 08:57:01;;;;;;;9.80;6.45;;;17.00;97.20;;;;;;4982889;28;20070;-56
2023/05/01 08:59:28;;;;;;;14.00;6.88;;;17.20;96.70;;;;;;4982967;28;20034;-54
2023/05/01 09:01:55;;;;;;;9.82;6.30;;;17.20;96.30;;;;;;4981982;28;20046;-58
2023/05/01 09:04:21;;;;;;;13.65;7.70;;;17.10;96.10;;;;;;4980389;28;20397;-55
2023/05/01 09:06:47;;;;;;;11.10;6.03;;;17.10;95.90;;;;;;4982904;28;20050;-58
2023/05/01 09:09:12;;;;;;;11.40;6.97;;;17.10;95.80;;;;;;4981537;28;20046;-59
2023/05/01 09:11:39;;;;;;;11.52;6.55;;;17.30;95.90;;;;;;4982606;28;20177;-56
2023/05/01 09:14:04;;;;;;;10.82;6.38;;;17.50;95.90;;;;;;4982306;28;20066;-56
2023/05/01 09:16:30;;;;;;;14.02;6.50;;;17.70;95.40;;;;;;4982348;28;20069;-55
2023/05/01 09:18:58;;;;;;;12.23;6.38;;;17.80;95.20;;;;;;4980919;28;20133;-57
2023/05/01 09:21:26;;;;;;;10.52;6.50;;;17.90;94.90;;;;;;4981050;28;20053;-59
2023/05/01 09:23:52;;;;;;;14.82;6.55;;;17.90;95.00;;;;;;4980613;28;20434;-58
2023/05/01 09:26:18;;;;;;;13.15;6.47;;;18.00;95.10;;;;;;4981726;28;20042;-56
2023/05/01 09:28:46;;;;;;;9.00;5.95;;;17.90;94.40;;;;;;4983169;28;20527;-57
2023/05/01 09:31:31;;;;;;;12.05;6.88;;;17.90;94.40;;;;;;4982401;28;20042;-63
2023/05/01 09:34:05;;;;;;;18.85;6.00;;;17.90;92.90;;;;;;4983963;28;20043;-59
2023/05/01 09:36:33;;;;;;;11.00;5.95;;;17.80;93.50;;;;;;4983424;28;20057;-64
2023/05/01 09:39:02;;;;;;;10.63;5.68;;;17.90;94.00;;;;;;4981686;28;20042;-61
2023/05/01 09:41:31;;;;;;;9.25;5.68;;;17.80;92.30;;;;;;4981210;28;20049;-59
2023/05/01 09:43:58;;;;;;;10.13;5.13;;;17.80;93.40;;;;;;4983372;28;20054;-64
2023/05/01 09:46:25;;;;;;;8.20;4.63;;;17.80;92.90;;;;;;4982021;28;20053;-62
2023/05/01 09:48:58;;;;;;;8.80;5.22;;;17.90;92.50;;;;;;4983290;28;20050;-58
2023/05/01 09:51:28;;;;;;;12.38;5.18;;;18.00;91.40;;;;;;4983812;28;20441;-59
2023/05/01 09:53:59;;;;;;;8.55;5.07;;;18.20;90.80;;;;;;4981779;28;20101;-63
2023/05/01 09:56:26;;;;;;;8.07;4.88;;;18.40;91.40;;;;;;4984009;28;20481;-52
2023/05/01 09:58:53;;;;;;;11.23;4.25;;;18.60;91.20;;;;;;4985906;28;20046;-65
2023/05/01 10:01:37;;;;;;;8.65;3.95;;;18.60;90.90;;;;;;4985590;28;20039;-63
2023/05/01 10:04:03;;;;;;;7.47;4.13;;;18.70;88.10;;;;;;4983964;28;20410;-57
2023/05/01 10:06:29;;;;;;;9.68;3.28;;;18.90;90.40;;;;;;4982053;28;20041;-57
2023/05/01 10:08:54;;;;;;;5.70;2.65;;;19.20;89.30;;;;;;4982113;28;20046;-59
2023/05/01 10:11:21;;;;;;;5.50;2.22;;;19.30;86.90;;;;;;4982850;28;20054;-55
2023/05/01 10:14:05;;;;;;;6.47;2.30;;;19.40;85.30;;;;;;4982353;28;20057;-61
2023/05/01 10:16:33;;;;;;;4.55;1.90;;;19.50;79.80;;;;;;4982869;28;20038;-63
2023/05/01 10:18:59;;;;;;;5.40;2.40;;;19.60;81.90;;;;;;4982661;28;20038;-62
2023/05/01 10:21:26;;;;;;;5.97;2.63;;;19.70;82.30;;;;;;4982648;28;20044;-62
2023/05/01 10:23:54;;;;;;;5.85;2.80;;;19.90;82.40;;;;;;4982245;28;20053;-64
2023/05/01 10:26:19;;;;;;;6.63;2.80;;;19.90;82.80;;;;;;4982980;28;20114;-64
2023/05/01 10:28:47;;;;;;;13.27;3.17;;;19.90;83.20;;;;;;4982060;28;20074;-65
2023/05/01 10:31:15;;;;;;;8.77;3.55;;;20.10;83.30;;;;;;4981201;28;20528;-58
2023/05/01 10:33:42;;;;;;;7.90;2.92;;;20.40;83.20;;;;;;4982623;28;20273;-57
2023/05/01 10:36:22;;;;;;;5.88;2.70;;;20.60;83.20;;;;;;4982010;28;20370;-58
2023/05/01 10:38:48;;;;;;;6.03;3.15;;;21.00;81.90;;;;;;4982018;28;20042;-59
2023/05/01 10:41:18;;;;;;;7.75;3.10;;;21.20;83.20;;;;;;4982649;28;20508;-60
2023/05/01 10:43:44;;;;;;;7.28;3.25;;;21.30;81.50;;;;;;4981839;28;20069;-53
2023/05/01 10:46:17;;;;;;;8.23;3.50;;;21.40;81.70;;;;;;4983255;28;20050;-64
2023/05/01 10:48:46;;;;;;;9.13;4.00;;;21.40;81.40;;;;;;4982892;28;20047;-54
2023/05/01 10:51:16;;;;;;;9.90;4.55;;;21.50;83.00;;;;;;4980624;28;20038;-59
2023/05/01 10:53:44;;;;;;;6.82;3.42;;;21.50;82.60;;;;;;4980969;28;20042;-63
2023/05/01 10:56:42;;;;;;;6.28;3.13;;;21.60;83.20;;;;;;4983974;28;20047;-62
2023/05/01 10:59:08;;;;;;;5.32;2.60;;;21.70;77.70;;;;;;4970904;28;20129;-58
2023/05/01 11:01:35;;;;;;;7.85;3.75;;;21.70;81.50;;;;;;4985946;28;20446;-53
2023/05/01 11:04:09;;;;;;;5.63;3.05;;;21.80;80.80;;;;;;4986564;28;20378;-58
2023/05/01 11:06:36;;;;;;;7.68;3.33;;;21.90;80.70;;;;;;4986198;28;20101;-60
2023/05/01 11:09:41;;;;;;;10.23;3.92;;;21.80;81.20;;;;;;4984589;28;20062;-63
2023/05/01 11:12:09;;;;;;;6.35;3.50;;;21.80;79.70;;;;;;4986359;28;20042;-54
2023/05/01 11:14:54;;;;;;;6.88;3.75;;;21.40;81.70;;;;;;4986129;28;20073;-59
2023/05/01 11:17:38;;;;;;;8.27;3.55;;;21.10;80.80;;;;;;4986372;28;20050;-61
2023/05/01 11:20:05;;;;;;;8.38;3.97;;;21.00;80.00;;;;;;4986354;28;20474;-56
2023/05/01 11:22:32;;;;;;;8.18;3.40;;;20.80;82.90;;;;;;4985233;28;20502;-55
2023/05/01 11:24:58;;;;;;;5.45;2.85;;;20.80;83.20;;;;;;4985659;28;20388;-58
2023/05/01 11:27:25;;;;;;;7.30;3.13;;;20.90;83.80;;;;;;4984728;28;20050;-60
2023/05/01 11:29:52;;;;;;;4.65;2.25;;;21.10;84.50;;;;;;4986137;28;20053;-61
2023/05/01 11:32:22;;;;;;;7.55;2.80;;;21.10;83.40;;;;;;4967933;28;20046;-52
2023/05/01 11:34:50;;;;;;;5.45;3.25;;;21.10;83.30;;;;;;4984368;28;20047;-62
2023/05/01 11:37:15;;;;;;;10.02;3.17;;;21.10;82.20;;;;;;4985308;28;20046;-63
2023/05/01 11:39:51;;;;;;;6.65;3.60;;;21.10;82.40;;;;;;4985183;28;20061;-55
2023/05/01 11:42:21;;;;;;;8.45;3.80;;;21.10;81.10;;;;;;4985952;28;20477;-64
2023/05/01 11:45:11;;;;;;;8.60;4.05;;;21.00;81.40;;;;;;4985866;28;20401;-63
2023/05/01 11:47:38;;;;;;;6.88;3.83;;;20.80;78.80;;;;;;4985318;28;20046;-56
2023/05/01 11:50:06;;;;;;;8.55;3.95;;;20.50;80.20;;;;;;4985309;28;20066;-64
2023/05/01 11:52:53;;;;;;;7.85;4.55;;;20.40;81.40;;;;;;4983915;28;20053;-62
2023/05/01 11:55:20;;;;;;;8.05;4.40;;;20.40;82.80;;;;;;4984207;28;20085;-58
2023/05/01 11:57:49;;;;;;;6.63;3.75;;;20.60;84.00;;;;;;4983322;28;20082;-53
2023/05/01 12:00:25;;;;;;;6.50;4.15;;;20.80;84.10;;;;;;4985655;28;20240;-61
2023/05/01 12:02:56;;;;;;;6.40;4.50;;;21.00;83.20;;;;;;4985534;28;20069;-58
2023/05/01 12:05:22;;;;;;;9.57;3.80;;;21.00;82.60;;;;;;4985031;28;20104;-62
2023/05/01 12:07:48;;;;;;;6.63;3.90;;;21.10;82.80;;;;;;4983671;28;20050;-64
2023/05/01 12:10:14;;;;;;;7.18;3.90;;;21.10;81.20;;;;;;4984977;28;20042;-61
2023/05/01 12:12:40;;;;;;;8.52;3.38;;;21.10;82.20;;;;;;4984580;28;20107;-57
2023/05/01 12:15:07;;;;;;;9.00;3.33;;;21.10;82.30;;;;;;4985270;28;20485;-63
2023/05/01 12:17:33;;;;;;;4.53;2.55;;;21.30;82.80;;;;;;4984845;28;20042;-63
2023/05/01 12:19:59;;;;;;;5.10;2.38;;;21.30;82.70;;;;;;4984886;28;20047;-61
2023/05/01 12:22:25;;;;;;;5.38;2.35;;;21.40;82.80;;;;;;4983929;28;20445;-51
2023/05/01 12:24:53;;;;;;;4.32;2.15;;;21.40;82.00;;;;;;4984901;28;20341;-61
2023/05/01 12:27:19;;;;;;;4.65;2.20;;;21.40;82.40;;;;;;4985390;28;20065;-59
2023/05/01 12:29:48;;;;;;;4.28;1.90;;;21.40;81.50;;;;;;4984529;28;20049;-57
2023/05/01 12:32:15;;;;;;;5.22;2.20;;;21.30;80.60;;;;;;4984890;28;20042;-58
2023/05/01 12:34:41;;;;;;;7.00;2.50;;;21.30;80.40;;;;;;4984213;28;20042;-62
2023/05/01 12:37:08;;;;;;;5.82;1.98;;;21.30;80.20;;;;;;4983638;28;20051;-61
2023/05/01 12:39:43;;;;;;;4.25;1.80;;;21.30;79.80;;;;;;4983894;28;20185;-62
2023/05/01 12:42:13;;;;;;;4.75;1.30;;;21.20;79.80;;;;;;4984684;28;20042;-52
2023/05/01 12:44:39;;;;;;;2.78;1.25;;;21.20;80.10;;;;;;4984046;28;20456;-63
2023/05/01 12:47:06;;;;;;;3.15;1.35;;;21.20;80.10;;;;;;4984208;28;20046;-63
2023/05/01 12:49:35;;;;;;;3.42;1.50;;;21.10;79.00;;;;;;4984441;28;20196;-62